sensor_id;sensor_type;location;lat;lon;timestamp;pressure;altitude;pressure_sealevel;temperature;humidity
18900;BME280;9582;52.018;6.306;2023-08-20T00:00:23;105003.03;;;16.40;100.00
18900;BME280;9582;52.018;6.306;2023-08-20T00:02:51;105020.63;;;16.38;100.00
18900;BME280;9582;52.018;6.306;2023-08-20T00:05:22;105025.91;;;16.38;100.00
18900;BME280;9582;52.018;6.306;2023-08-20T00:07:48;105032.06;;;16.38;100.00
18900;BME280;9582;52.018;6.306;2023-08-20T00:10:15;105044.41;;;16.39;100.00
18900;BME280;9582;52.018;6.306;2023-08-20T00:12:41;105048.81;;;16.42;100.00
18900;BME280;9582;52.018;6.306;2023-08-20T00:15:09;105071.69;;;16.43;100.00
18900;BME280;9582;52.018;6.306;2023-08-20T00:17:38;105086.69;;;16.42;100.00
18900;BME280;9582;52.018;6.306;2023-08-20T00:20:06;105095.50;;;16.41;100.00
18900;BME280;9582;52.018;6.306;2023-08-20T00:22:36;105118.41;;;16.36;100.00
18900;BME280;9582;52.018;6.306;2023-08-20T00:25:03;105121.03;;;16.33;100.00
18900;BME280;9582;52.018;6.306;2023-08-20T00:27:30;105120.16;;;16.19;100.00
18900;BME280;9582;52.018;6.306;2023-08-20T00:29:57;105106.09;;;15.94;100.00
18900;BME280;9582;52.018;6.306;2023-08-20T00:32:25;105108.69;;;15.73;100.00
18900;BME280;9582;52.018;6.306;2023-08-20T00:34:52;105103.38;;;15.67;100.00
18900;BME280;9582;52.018;6.306;2023-08-20T00:37:19;105095.47;;;15.66;100.00
18900;BME280;9582;52.018;6.306;2023-08-20T00:39:45;105108.69;;;15.72;100.00
18900;BME280;9582;52.018;6.306;2023-08-20T00:42:13;105108.69;;;15.76;100.00
18900;BME280;9582;52.018;6.306;2023-08-20T00:44:39;105120.13;;;15.78;100.00
18900;BME280;9582;52.018;6.306;2023-08-20T00:47:07;105125.41;;;15.84;100.00
18900;BME280;9582;52.018;6.306;2023-08-20T00:49:36;105136.00;;;15.86;100.00
18900;BME280;9582;52.018;6.306;2023-08-20T00:52:04;105136.84;;;15.89;100.00
18900;BME280;9582;52.018;6.306;2023-08-20T00:54:31;105143.91;;;15.93;100.00
18900;BME280;9582;52.018;6.306;2023-08-20T00:56:59;105150.09;;;15.97;100.00
18900;BME280;9582;52.018;6.306;2023-08-20T00:59:27;105151.84;;;16.01;100.00
18900;BME280;9582;52.018;6.306;2023-08-20T01:01:53;105149.19;;;16.01;100.00
18900;BME280;9582;52.018;6.306;2023-08-20T01:04:20;105144.81;;;16.00;100.00
18900;BME280;9582;52.018;6.306;2023-08-20T01:06:54;105150.09;;;16.03;95.99
18900;BME280;9582;52.018;6.306;2023-08-20T01:09:30;105170.34;;;15.99;92.67
18900;BME280;9582;52.018;6.306;2023-08-20T01:12:03;105198.50;;;15.97;89.15
18900;BME280;9582;52.018;6.306;2023-08-20T01:14:29;105213.47;;;15.97;85.31
18900;BME280;9582;52.018;6.306;2023-08-20T01:16:56;105246.91;;;15.98;82.72
18900;BME280;9582;52.018;6.306;2023-08-20T01:19:24;105283.00;;;16.00;78.69
18900;BME280;9582;52.018;6.306;2023-08-20T01:22:15;105337.59;;;16.06;77.17
18900;BME280;9582;52.018;6.306;2023-08-20T01:24:59;105377.22;;;16.09;75.69
18900;BME280;9582;52.018;6.306;2023-08-20T01:27:36;105398.34;;;16.06;75.19
18900;BME280;9582;52.018;6.306;2023-08-20T01:30:09;105422.13;;;16.07;74.68
18900;BME280;9582;52.018;6.306;2023-08-20T01:32:36;105437.97;;;16.07;74.17
18900;BME280;9582;52.018;6.306;2023-08-20T01:35:07;105463.53;;;16.10;73.49
18900;BME280;9582;52.018;6.306;2023-08-20T01:37:34;105473.22;;;16.11;73.07
18900;BME280;9582;52.018;6.306;2023-08-20T01:40:01;105492.63;;;16.17;72.45
18900;BME280;9582;52.018;6.306;2023-08-20T01:42:29;105505.88;;;16.22;71.85
18900;BME280;9582;52.018;6.306;2023-08-20T01:44:55;105520.00;;;16.26;71.22
18900;BME280;9582;52.018;6.306;2023-08-20T01:47:23;105527.03;;;16.28;71.05
18900;BME280;9582;52.018;6.306;2023-08-20T01:49:51;105527.03;;;16.28;70.96
18900;BME280;9582;52.018;6.306;2023-08-20T01:52:18;105536.72;;;16.29;70.79
18900;BME280;9582;52.018;6.306;2023-08-20T01:54:44;105543.78;;;16.30;70.74
18900;BME280;9582;52.018;6.306;2023-08-20T01:57:11;105542.03;;;16.31;70.68
18900;BME280;9582;52.018;6.306;2023-08-20T01:59:37;105548.19;;;16.28;70.80
18900;BME280;9582;52.018;6.306;2023-08-20T02:02:04;105548.19;;;16.30;70.69
18900;BME280;9582;52.018;6.306;2023-08-20T02:04:32;105554.34;;;16.30;70.61
18900;BME280;9582;52.018;6.306;2023-08-20T02:06:59;105554.34;;;16.32;70.49
18900;BME280;9582;52.018;6.306;2023-08-20T02:09:26;105565.84;;;16.34;70.36
18900;BME280;9582;52.018;6.306;2023-08-20T02:11:53;105574.63;;;16.37;70.09
18900;BME280;9582;52.018;6.306;2023-08-20T02:14:19;105575.56;;;16.41;69.67
18900;BME280;9582;52.018;6.306;2023-08-20T02:16:47;105587.03;;;16.44;69.30
18900;BME280;9582;52.018;6.306;2023-08-20T02:19:14;105591.44;;;16.47;69.16
18900;BME280;9582;52.018;6.306;2023-08-20T02:21:42;105591.44;;;16.48;68.66
18900;BME280;9582;52.018;6.306;2023-08-20T02:24:09;105596.75;;;16.51;68.10
18900;BME280;9582;52.018;6.306;2023-08-20T02:26:36;105602.06;;;16.53;67.70
18900;BME280;9582;52.018;6.306;2023-08-20T02:29:03;105602.97;;;16.55;67.37
18900;BME280;9582;52.018;6.306;2023-08-20T02:31:30;105612.69;;;16.56;67.01
18900;BME280;9582;52.018;6.306;2023-08-20T02:33:57;105625.03;;;16.55;66.83
18900;BME280;9582;52.018;6.306;2023-08-20T02:36:23;105627.66;;;16.54;66.60
18900;BME280;9582;52.018;6.306;2023-08-20T02:38:51;105642.63;;;16.55;66.38
18900;BME280;9582;52.018;6.306;2023-08-20T02:41:18;105637.34;;;16.55;66.02
18900;BME280;9582;52.018;6.306;2023-08-20T02:43:45;105654.09;;;16.55;65.61
18900;BME280;9582;52.018;6.306;2023-08-20T02:46:11;105663.78;;;16.55;65.37
18900;BME280;9582;52.018;6.306;2023-08-20T02:48:38;105664.66;;;16.57;65.11
18900;BME280;9582;52.018;6.306;2023-08-20T02:51:04;105665.59;;;16.59;65.03
18900;BME280;9582;52.018;6.306;2023-08-20T02:53:31;105680.53;;;16.60;65.06
18900;BME280;9582;52.018;6.306;2023-08-20T02:55:58;105693.75;;;16.57;65.26
18900;BME280;9582;52.018;6.306;2023-08-20T02:58:25;105686.72;;;16.56;65.50
18900;BME280;9582;52.018;6.306;2023-08-20T03:00:51;105687.56;;;16.53;65.81
18900;BME280;9582;52.018;6.306;2023-08-20T03:03:18;105674.28;;;16.52;66.17
18900;BME280;9582;52.018;6.306;2023-08-20T03:05:45;105673.41;;;16.50;66.51
18900;BME280;9582;52.018;6.306;2023-08-20T03:08:11;105674.28;;;16.49;66.85
18900;BME280;9582;52.018;6.306;2023-08-20T03:10:38;105663.66;;;16.43;67.48
18900;BME280;9582;52.018;6.306;2023-08-20T03:13:06;105668.94;;;16.40;67.87
18900;BME280;9582;52.018;6.306;2023-08-20T03:15:32;105660.09;;;16.36;68.26
18900;BME280;9582;52.018;6.306;2023-08-20T03:17:59;105653.06;;;16.37;68.23
18900;BME280;9582;52.018;6.306;2023-08-20T03:20:25;105650.38;;;16.35;68.38
18900;BME280;9582;52.018;6.306;2023-08-20T03:22:53;105643.31;;;16.31;68.70
18900;BME280;9582;52.018;6.306;2023-08-20T03:25:20;105633.63;;;16.30;68.88
18900;BME280;9582;52.018;6.306;2023-08-20T03:27:46;105630.06;;;16.27;69.14
18900;BME280;9582;52.018;6.306;2023-08-20T03:30:14;105633.59;;;16.26;69.28
18900;BME280;9582;52.018;6.306;2023-08-20T03:32:43;105623.88;;;16.22;69.65
18900;BME280;9582;52.018;6.306;2023-08-20T03:35:10;105622.09;;;16.19;70.01
18900;BME280;9582;52.018;6.306;2023-08-20T03:37:37;105614.13;;;16.17;70.36
18900;BME280;9582;52.018;6.306;2023-08-20T03:40:04;105605.31;;;16.15;70.69
18900;BME280;9582;52.018;6.306;2023-08-20T03:42:31;105604.44;;;16.13;71.08
18900;BME280;9582;52.018;6.306;2023-08-20T03:44:57;105592.09;;;16.11;71.18
18900;BME280;9582;52.018;6.306;2023-08-20T03:47:25;105600.88;;;16.10;71.21
18900;BME280;9582;52.018;6.306;2023-08-20T03:49:52;105601.75;;;16.10;71.31
18900;BME280;9582;52.018;6.306;2023-08-20T03:52:18;105595.59;;;16.08;71.50
18900;BME280;9582;52.018;6.306;2023-08-20T03:54:45;105599.94;;;16.03;72.13
18900;BME280;9582;52.018;6.306;2023-08-20T03:57:11;105586.69;;;16.00;72.80
18900;BME280;9582;52.018;6.306;2023-08-20T03:59:38;105589.38;;;16.03;73.03
18900;BME280;9582;52.018;6.306;2023-08-20T04:02:04;105586.69;;;16.00;73.28
18900;BME280;9582;52.018;6.306;2023-08-20T04:04:32;105579.63;;;15.93;74.48
18900;BME280;9582;52.018;6.306;2023-08-20T04:06:58;105574.25;;;15.84;77.43
18900;BME280;9582;52.018;6.306;2023-08-20T04:09:25;105565.41;;;15.81;80.81
18900;BME280;9582;52.018;6.306;2023-08-20T04:11:51;105561.00;;;15.78;82.00
18900;BME280;9582;52.018;6.306;2023-08-20T04:14:18;105561.00;;;15.77;82.53
18900;BME280;9582;52.018;6.306;2023-08-20T04:16:44;105558.34;;;15.78;82.73
18900;BME280;9582;52.018;6.306;2023-08-20T04:19:11;105544.22;;;15.72;83.61
18900;BME280;9582;52.018;6.306;2023-08-20T04:21:39;105532.66;;;15.59;86.91
18900;BME280;9582;52.018;6.306;2023-08-20T04:24:06;105527.31;;;15.53;88.86
18900;BME280;9582;52.018;6.306;2023-08-20T04:26:32;105522.03;;;15.48;90.67
18900;BME280;9582;52.018;6.306;2023-08-20T04:28:59;105515.03;;;15.52;90.41
18900;BME280;9582;52.018;6.306;2023-08-20T04:31:26;105516.81;;;15.56;89.84
18900;BME280;9582;52.018;6.306;2023-08-20T04:33:59;105503.66;;;15.61;88.07
18900;BME280;9582;52.018;6.306;2023-08-20T04:36:40;105500.97;;;15.56;89.44
18900;BME280;9582;52.018;6.306;2023-08-20T04:39:06;105491.25;;;15.50;91.53
18900;BME280;9582;52.018;6.306;2023-08-20T04:41:36;105491.28;;;15.52;92.80
18900;BME280;9582;52.018;6.306;2023-08-20T04:44:03;105489.53;;;15.55;91.97
18900;BME280;9582;52.018;6.306;2023-08-20T04:46:30;105500.09;;;15.58;91.13
18900;BME280;9582;52.018;6.306;2023-08-20T04:48:57;105497.50;;;15.60;90.70
18900;BME280;9582;52.018;6.306;2023-08-20T04:51:23;105491.34;;;15.64;89.75
18900;BME280;9582;52.018;6.306;2023-08-20T04:53:52;105497.59;;;15.69;88.68
18900;BME280;9582;52.018;6.306;2023-08-20T04:56:18;105497.59;;;15.75;87.28
18900;BME280;9582;52.018;6.306;2023-08-20T04:58:45;105493.19;;;15.73;87.96
18900;BME280;9582;52.018;6.306;2023-08-20T05:01:16;105499.34;;;15.72;89.72
18900;BME280;9582;52.018;6.306;2023-08-20T05:03:43;105507.31;;;15.79;88.00
18900;BME280;9582;52.018;6.306;2023-08-20T05:06:09;105494.16;;;15.82;86.73
18900;BME280;9582;52.018;6.306;2023-08-20T05:08:36;105503.84;;;15.83;86.42
18900;BME280;9582;52.018;6.306;2023-08-20T05:11:04;105498.56;;;15.86;85.41
18900;BME280;9582;52.018;6.306;2023-08-20T05:13:31;105508.28;;;15.90;84.20
18900;BME280;9582;52.018;6.306;2023-08-20T05:15:59;105510.09;;;15.94;83.40
18900;BME280;9582;52.018;6.306;2023-08-20T05:18:25;105511.84;;;15.95;83.54
18900;BME280;9582;52.018;6.306;2023-08-20T05:20:53;105516.25;;;15.98;83.84
18900;BME280;9582;52.018;6.306;2023-08-20T05:23:20;105511.91;;;16.00;84.24
18900;BME280;9582;52.018;6.306;2023-08-20T05:25:46;105508.38;;;15.99;84.61
18900;BME280;9582;52.018;6.306;2023-08-20T05:28:14;105525.94;;;16.00;84.53
18900;BME280;9582;52.018;6.306;2023-08-20T05:30:40;105528.66;;;16.05;84.17
18900;BME280;9582;52.018;6.306;2023-08-20T05:33:07;105530.44;;;16.10;83.43
18900;BME280;9582;52.018;6.306;2023-08-20T05:35:36;105539.31;;;16.18;82.24
18900;BME280;9582;52.018;6.306;2023-08-20T05:38:02;105542.03;;;16.31;79.95
18900;BME280;9582;52.018;6.306;2023-08-20T05:40:29;105550.03;;;16.49;78.06
18900;BME280;9582;52.018;6.306;2023-08-20T05:42:56;105573.16;;;16.80;77.34
18900;BME280;9582;52.018;6.306;2023-08-20T05:45:24;105635.19;;;17.58;81.03
18900;BME280;9582;52.018;6.306;2023-08-20T05:47:51;105697.06;;;18.44;85.46
18900;BME280;9582;52.018;6.306;2023-08-20T05:50:18;105724.44;;;19.01;93.18
18900;BME280;9582;52.018;6.306;2023-08-20T05:52:44;105749.91;;;19.61;99.91
18900;BME280;9582;52.018;6.306;2023-08-20T05:55:11;105770.00;;;20.09;100.00
18900;BME280;9582;52.018;6.306;2023-08-20T05:57:37;105783.84;;;20.55;100.00
18900;BME280;9582;52.018;6.306;2023-08-20T06:00:05;105787.19;;;20.78;100.00
18900;BME280;9582;52.018;6.306;2023-08-20T06:02:42;105778.97;;;21.05;100.00
18900;BME280;9582;52.018;6.306;2023-08-20T06:05:10;105782.22;;;21.32;100.00
18900;BME280;9582;52.018;6.306;2023-08-20T06:07:37;105791.59;;;21.63;100.00
18900;BME280;9582;52.018;6.306;2023-08-20T06:10:04;105779.81;;;21.80;100.00
18900;BME280;9582;52.018;6.306;2023-08-20T06:12:31;105748.59;;;21.92;100.00
18900;BME280;9582;52.018;6.306;2023-08-20T06:14:57;105666.72;;;21.97;100.00
18900;BME280;9582;52.018;6.306;2023-08-20T06:17:24;105296.78;;;22.08;100.00
18900;BME280;9582;52.018;6.306;2023-08-20T06:19:52;105178.25;;;22.21;100.00
18900;BME280;9582;52.018;6.306;2023-08-20T06:22:18;105115.97;;;22.22;100.00
18900;BME280;9582;52.018;6.306;2023-08-20T06:24:44;105067.56;;;22.37;100.00
18900;BME280;9582;52.018;6.306;2023-08-20T06:27:11;105010.63;;;22.38;100.00
18900;BME280;9582;52.018;6.306;2023-08-20T06:29:37;104960.44;;;22.51;100.00
18900;BME280;9582;52.018;6.306;2023-08-20T06:32:04;104928.41;;;22.52;100.00
18900;BME280;9582;52.018;6.306;2023-08-20T06:34:31;104899.53;;;22.66;100.00
18900;BME280;9582;52.018;6.306;2023-08-20T06:37:01;104869.91;;;22.74;100.00
18900;BME280;9582;52.018;6.306;2023-08-20T06:39:27;104830.44;;;22.83;100.00
18900;BME280;9582;52.018;6.306;2023-08-20T06:41:53;104798.31;;;22.86;100.00
18900;BME280;9582;52.018;6.306;2023-08-20T06:44:20;104756.47;;;22.87;100.00
18900;BME280;9582;52.018;6.306;2023-08-20T06:46:47;104722.34;;;22.96;100.00
18900;BME280;9582;52.018;6.306;2023-08-20T06:49:13;104691.09;;;22.98;100.00
18900;BME280;9582;52.018;6.306;2023-08-20T06:51:39;104642.47;;;22.90;100.00
18900;BME280;9582;52.018;6.306;2023-08-20T06:54:07;104622.03;;;23.13;100.00
18900;BME280;9582;52.018;6.306;2023-08-20T06:56:35;104592.78;;;23.10;100.00
18900;BME280;9582;52.018;6.306;2023-08-20T06:59:01;104557.03;;;23.14;100.00
18900;BME280;9582;52.018;6.306;2023-08-20T07:01:28;104535.56;;;23.17;100.00
18900;BME280;9582;52.018;6.306;2023-08-20T07:03:54;104513.78;;;23.26;100.00
18900;BME280;9582;52.018;6.306;2023-08-20T07:06:21;104502.19;;;23.27;100.00
18900;BME280;9582;52.018;6.306;2023-08-20T07:08:47;104478.28;;;23.24;100.00
18900;BME280;9582;52.018;6.306;2023-08-20T07:11:15;104460.53;;;23.23;100.00
18900;BME280;9582;52.018;6.306;2023-08-20T07:13:42;104430.13;;;23.04;100.00
18900;BME280;9582;52.018;6.306;2023-08-20T07:16:08;104404.19;;;22.85;100.00
18900;BME280;9582;52.018;6.306;2023-08-20T07:18:35;104379.03;;;22.69;100.00
18900;BME280;9582;52.018;6.306;2023-08-20T07:21:02;104355.84;;;22.71;100.00
18900;BME280;9582;52.018;6.306;2023-08-20T07:23:28;104335.41;;;22.70;100.00
18900;BME280;9582;52.018;6.306;2023-08-20T07:26:04;104309.03;;;22.63;100.00
18900;BME280;9582;52.018;6.306;2023-08-20T07:28:32;104314.75;;;22.97;100.00
18900;BME280;9582;52.018;6.306;2023-08-20T07:31:13;104287.56;;;22.87;100.00
18900;BME280;9582;52.018;6.306;2023-08-20T07:33:39;104260.00;;;22.87;100.00
18900;BME280;9582;52.018;6.306;2023-08-20T07:36:06;104247.31;;;22.92;100.00
18900;BME280;9582;52.018;6.306;2023-08-20T07:38:32;104240.25;;;22.91;100.00
18900;BME280;9582;52.018;6.306;2023-08-20T07:40:59;104233.13;;;22.91;100.00
18900;BME280;9582;52.018;6.306;2023-08-20T07:43:26;104229.59;;;22.91;100.00
18900;BME280;9582;52.018;6.306;2023-08-20T07:45:53;104228.72;;;22.90;100.00
18900;BME280;9582;52.018;6.306;2023-08-20T07:48:20;104221.63;;;22.89;100.00
18900;BME280;9582;52.018;6.306;2023-08-20T07:50:46;104198.97;;;22.99;100.00
18900;BME280;9582;52.018;6.306;2023-08-20T07:53:13;104202.94;;;23.10;100.00
18900;BME280;9582;52.018;6.306;2023-08-20T07:55:39;104194.66;;;23.16;100.00
18900;BME280;9582;52.018;6.306;2023-08-20T07:58:06;104185.09;;;23.30;100.00
18900;BME280;9582;52.018;6.306;2023-08-20T08:00:32;104165.94;;;23.41;100.00
18900;BME280;9582;52.018;6.306;2023-08-20T08:03:00;104151.66;;;23.42;100.00
18900;BME280;9582;52.018;6.306;2023-08-20T08:05:28;104140.09;;;23.60;100.00
18900;BME280;9582;52.018;6.306;2023-08-20T08:07:54;104126.72;;;23.60;100.00
18900;BME280;9582;52.018;6.306;2023-08-20T08:10:21;104107.72;;;23.66;100.00
18900;BME280;9582;52.018;6.306;2023-08-20T08:12:47;104105.41;;;23.77;100.00
18900;BME280;9582;52.018;6.306;2023-08-20T08:15:14;104096.22;;;23.83;100.00
18900;BME280;9582;52.018;6.306;2023-08-20T08:17:41;104086.34;;;23.85;100.00
18900;BME280;9582;52.018;6.306;2023-08-20T08:20:09;104074.34;;;23.93;100.00
18900;BME280;9582;52.018;6.306;2023-08-20T08:22:35;104072.66;;;24.08;100.00
18900;BME280;9582;52.018;6.306;2023-08-20T08:25:02;104072.81;;;24.24;100.00
18900;BME280;9582;52.018;6.306;2023-08-20T08:27:28;104065.50;;;24.27;100.00
18900;BME280;9582;52.018;6.306;2023-08-20T08:29:55;104052.19;;;24.43;100.00
18900;BME280;9582;52.018;6.306;2023-08-20T08:32:21;104033.28;;;24.46;100.00
18900;BME280;9582;52.018;6.306;2023-08-20T08:34:48;104012.34;;;24.54;100.00
18900;BME280;9582;52.018;6.306;2023-08-20T08:37:16;103994.81;;;24.64;100.00
18900;BME280;9582;52.018;6.306;2023-08-20T08:39:42;103954.63;;;24.65;100.00
18900;BME280;9582;52.018;6.306;2023-08-20T08:42:10;103950.13;;;24.66;100.00
18900;BME280;9582;52.018;6.306;2023-08-20T08:44:38;103916.09;;;24.68;100.00
18900;BME280;9582;52.018;6.306;2023-08-20T08:47:05;103880.63;;;24.64;100.00
18900;BME280;9582;52.018;6.306;2023-08-20T08:49:33;103855.06;;;24.59;100.00
18900;BME280;9582;52.018;6.306;2023-08-20T08:52:01;103860.50;;;24.73;100.00
18900;BME280;9582;52.018;6.306;2023-08-20T08:54:32;103866.44;;;24.78;100.00
18900;BME280;9582;52.018;6.306;2023-08-20T08:56:59;103843.00;;;24.83;100.00
18900;BME280;9582;52.018;6.306;2023-08-20T08:59:26;103828.47;;;24.87;100.00
18900;BME280;9582;52.018;6.306;2023-08-20T09:01:52;103810.34;;;24.92;100.00
18900;BME280;9582;52.018;6.306;2023-08-20T09:04:19;103820.34;;;25.04;100.00
18900;BME280;9582;52.018;6.306;2023-08-20T09:06:46;103815.56;;;25.09;100.00
18900;BME280;9582;52.018;6.306;2023-08-20T09:09:13;103783.34;;;25.11;100.00
18900;BME280;9582;52.018;6.306;2023-08-20T09:11:41;103755.88;;;25.07;100.00
18900;BME280;9582;52.018;6.306;2023-08-20T09:14:07;103759.94;;;25.14;100.00
18900;BME280;9582;52.018;6.306;2023-08-20T09:16:34;103774.19;;;25.29;100.00
18900;BME280;9582;52.018;6.306;2023-08-20T09:19:00;103735.56;;;25.33;100.00
18900;BME280;9582;52.018;6.306;2023-08-20T09:21:27;103712.38;;;25.48;100.00
18900;BME280;9582;52.018;6.306;2023-08-20T09:23:55;103686.09;;;25.39;100.00
18900;BME280;9582;52.018;6.306;2023-08-20T09:26:22;103638.75;;;25.39;100.00
18900;BME280;9582;52.018;6.306;2023-08-20T09:28:49;103370.91;;;25.38;100.00
18900;BME280;9582;52.018;6.306;2023-08-20T09:31:16;103243.44;;;25.48;100.00
18900;BME280;9582;52.018;6.306;2023-08-20T09:33:49;103251.25;;;25.63;100.00
18900;BME280;9582;52.018;6.306;2023-08-20T09:36:16;103261.34;;;25.85;100.00
18900;BME280;9582;52.018;6.306;2023-08-20T09:38:43;103214.06;;;25.84;100.00
18900;BME280;9582;52.018;6.306;2023-08-20T09:41:11;103086.09;;;25.86;100.00
18900;BME280;9582;52.018;6.306;2023-08-20T09:43:38;103000.81;;;25.91;100.00
18900;BME280;9582;52.018;6.306;2023-08-20T09:46:07;102960.31;;;26.07;100.00
18900;BME280;9582;52.018;6.306;2023-08-20T09:48:38;103005.84;;;26.19;100.00
18900;BME280;9582;52.018;6.306;2023-08-20T09:51:09;102948.19;;;26.25;100.00
18900;BME280;9582;52.018;6.306;2023-08-20T09:53:41;102907.84;;;26.26;100.00
18900;BME280;9582;52.018;6.306;2023-08-20T09:56:10;102872.50;;;26.21;100.00
18900;BME280;9582;52.018;6.306;2023-08-20T09:58:40;102855.91;;;26.16;100.00
18900;BME280;9582;52.018;6.306;2023-08-20T10:01:09;102864.44;;;26.21;100.00
18900;BME280;9582;52.018;6.306;2023-08-20T10:03:36;102876.28;;;26.19;100.00
18900;BME280;9582;52.018;6.306;2023-08-20T10:06:04;102871.41;;;26.24;100.00
18900;BME280;9582;52.018;6.306;2023-08-20T10:08:31;102819.94;;;26.19;100.00
18900;BME280;9582;52.018;6.306;2023-08-20T10:10:58;102775.94;;;26.21;100.00
18900;BME280;9582;52.018;6.306;2023-08-20T10:13:24;102740.81;;;26.35;100.00
18900;BME280;9582;52.018;6.306;2023-08-20T10:15:51;102745.50;;;26.54;100.00
18900;BME280;9582;52.018;6.306;2023-08-20T10:18:21;102722.44;;;26.63;100.00
18900;BME280;9582;52.018;6.306;2023-08-20T10:20:49;102685.06;;;26.71;100.00
18900;BME280;9582;52.018;6.306;2023-08-20T10:23:20;102706.94;;;26.66;100.00
18900;BME280;9582;52.018;6.306;2023-08-20T10:25:48;102723.75;;;26.79;100.00
18900;BME280;9582;52.018;6.306;2023-08-20T10:28:20;102727.25;;;26.91;100.00
18900;BME280;9582;52.018;6.306;2023-08-20T10:31:06;102739.75;;;26.81;100.00
18900;BME280;9582;52.018;6.306;2023-08-20T10:33:35;102735.09;;;26.72;100.00
18900;BME280;9582;52.018;6.306;2023-08-20T10:36:10;102728.28;;;26.68;100.00
18900;BME280;9582;52.018;6.306;2023-08-20T10:38:37;102709.22;;;26.71;100.00
18900;BME280;9582;52.018;6.306;2023-08-20T10:41:06;102672.75;;;26.68;100.00
18900;BME280;9582;52.018;6.306;2023-08-20T10:43:34;102649.97;;;26.63;100.00
18900;BME280;9582;52.018;6.306;2023-08-20T10:46:14;102633.47;;;26.67;100.00
18900;BME280;9582;52.018;6.306;2023-08-20T10:48:44;102626.75;;;26.73;100.00
18900;BME280;9582;52.018;6.306;2023-08-20T10:51:13;102616.25;;;26.81;100.00
18900;BME280;9582;52.018;6.306;2023-08-20T10:53:41;102640.41;;;26.81;100.00
18900;BME280;9582;52.018;6.306;2023-08-20T10:56:12;102624.31;;;26.81;100.00
18900;BME280;9582;52.018;6.306;2023-08-20T10:58:44;102616.56;;;26.87;100.00
18900;BME280;9582;52.018;6.306;2023-08-20T11:01:15;102861.13;;;26.84;100.00
18900;BME280;9582;52.018;6.306;2023-08-20T11:03:44;102678.41;;;26.97;100.00
18900;BME280;9582;52.018;6.306;2023-08-20T11:06:11;102671.47;;;26.94;100.00
18900;BME280;9582;52.018;6.306;2023-08-20T11:08:38;102688.44;;;26.95;100.00
18900;BME280;9582;52.018;6.306;2023-08-20T11:11:05;102697.00;;;26.89;100.00
18900;BME280;9582;52.018;6.306;2023-08-20T11:13:33;102713.22;;;26.87;100.00
18900;BME280;9582;52.018;6.306;2023-08-20T11:16:01;102709.97;;;26.84;100.00
18900;BME280;9582;52.018;6.306;2023-08-20T11:18:28;102690.91;;;26.87;100.00
18900;BME280;9582;52.018;6.306;2023-08-20T11:20:56;102690.50;;;26.91;100.00
18900;BME280;9582;52.018;6.306;2023-08-20T11:23:24;102703.59;;;26.85;100.00
18900;BME280;9582;52.018;6.306;2023-08-20T11:25:51;102685.75;;;26.95;100.00
18900;BME280;9582;52.018;6.306;2023-08-20T11:28:17;102685.16;;;27.12;100.00
18900;BME280;9582;52.018;6.306;2023-08-20T11:30:44;102693.75;;;27.06;100.00
18900;BME280;9582;52.018;6.306;2023-08-20T11:33:10;102705.47;;;27.05;100.00
18900;BME280;9582;52.018;6.306;2023-08-20T11:35:37;102725.97;;;27.06;100.00
18900;BME280;9582;52.018;6.306;2023-08-20T11:38:05;102714.63;;;27.03;100.00
18900;BME280;9582;52.018;6.306;2023-08-20T11:40:32;102723.75;;;27.11;100.00
18900;BME280;9582;52.018;6.306;2023-08-20T11:42:59;102717.66;;;27.09;100.00
18900;BME280;9582;52.018;6.306;2023-08-20T11:45:25;102724.00;;;27.08;100.00
18900;BME280;9582;52.018;6.306;2023-08-20T11:47:55;102737.44;;;27.08;100.00
18900;BME280;9582;52.018;6.306;2023-08-20T11:50:22;102737.28;;;27.10;100.00
18900;BME280;9582;52.018;6.306;2023-08-20T11:52:51;102737.63;;;27.16;100.00
18900;BME280;9582;52.018;6.306;2023-08-20T11:55:23;102742.13;;;27.16;100.00
18900;BME280;9582;52.018;6.306;2023-08-20T11:57:50;102748.97;;;27.20;100.00
18900;BME280;9582;52.018;6.306;2023-08-20T12:00:24;102745.03;;;27.24;100.00
18900;BME280;9582;52.018;6.306;2023-08-20T12:02:52;102757.56;;;27.34;100.00
18900;BME280;9582;52.018;6.306;2023-08-20T12:05:19;102754.19;;;27.53;100.00
18900;BME280;9582;52.018;6.306;2023-08-20T12:07:54;102754.50;;;27.60;100.00
18900;BME280;9582;52.018;6.306;2023-08-20T12:10:24;102760.34;;;27.65;100.00
18900;BME280;9582;52.018;6.306;2023-08-20T12:12:51;102748.69;;;27.55;100.00
18900;BME280;9582;52.018;6.306;2023-08-20T12:15:17;102757.66;;;27.44;100.00
18900;BME280;9582;52.018;6.306;2023-08-20T12:17:55;102754.09;;;27.43;100.00
18900;BME280;9582;52.018;6.306;2023-08-20T12:20:21;102747.25;;;27.50;100.00
18900;BME280;9582;52.018;6.306;2023-08-20T12:22:48;102726.63;;;27.61;100.00
18900;BME280;9582;52.018;6.306;2023-08-20T12:25:15;102727.50;;;27.61;100.00
18900;BME280;9582;52.018;6.306;2023-08-20T12:27:43;102724.41;;;27.66;100.00
18900;BME280;9582;52.018;6.306;2023-08-20T12:30:11;102706.44;;;27.66;100.00
18900;BME280;9582;52.018;6.306;2023-08-20T12:32:37;102714.81;;;27.73;100.00
18900;BME280;9582;52.018;6.306;2023-08-20T12:35:05;102704.47;;;27.68;100.00
18900;BME280;9582;52.018;6.306;2023-08-20T12:37:31;102700.13;;;27.77;100.00
18900;BME280;9582;52.018;6.306;2023-08-20T12:39:58;102675.47;;;27.72;100.00
18900;BME280;9582;52.018;6.306;2023-08-20T12:42:25;102668.66;;;27.68;100.00
18900;BME280;9582;52.018;6.306;2023-08-20T12:44:53;102664.44;;;27.75;100.00
18900;BME280;9582;52.018;6.306;2023-08-20T12:47:19;102649.31;;;27.74;100.00
18900;BME280;9582;52.018;6.306;2023-08-20T12:49:46;102629.09;;;27.79;100.00
18900;BME280;9582;52.018;6.306;2023-08-20T12:52:12;102634.75;;;27.86;100.00
18900;BME280;9582;52.018;6.306;2023-08-20T12:54:38;102614.97;;;27.77;100.00